Elizabethport, New Jersey
Current Conditions -  °F | °C
As of 9:51 AM on Saturday 25 Oct 2014 (Local Time) from KEWR Reporting Station
Few Clouds Few Clouds  
Wind Chill: 56°   Ceiling: Unl
Heat Index: 56°   Visibility: 10mi
Dew Point: 38°   Wind: 8mph
Humidity: 51%   Direction: 270°W
Pressure: 29.86"   Gusts: NA
Location:  40.6522°N, 74.1905°W
Report Text: KEWR 251351Z 27007KT 10SM FEW250 13/03 A2986 RMK AO2 SLP111 T01330033
Loading
Personal Weather Stations






























Interactive Weather Map
Tropical Storm Tracking
New forecast layout! Learn more

10-Day Weather Forecast

Advertisements
Track Severe Weather on mobile